sensor_id;sensor_type;location;lat;lon;timestamp;pressure;altitude;pressure_sealevel;temperature;humidity
84143;BME280;74260;50.772;7.730;2024-02-04T00:00:20;99595.50;;;9.55;100.00
84143;BME280;74260;50.772;7.730;2024-02-04T00:00:50;99597.00;;;9.61;100.00
84143;BME280;74260;50.772;7.730;2024-02-04T00:01:22;99596.13;;;9.61;100.00
84143;BME280;74260;50.772;7.730;2024-02-04T00:01:54;99595.81;;;9.58;100.00
84143;BME280;74260;50.772;7.730;2024-02-04T00:02:25;99599.44;;;9.60;100.00
84143;BME280;74260;50.772;7.730;2024-02-04T00:02:57;99597.63;;;9.59;100.00
84143;BME280;74260;50.772;7.730;2024-02-04T00:03:28;99590.50;;;9.56;100.00
84143;BME280;74260;50.772;7.730;2024-02-04T00:03:59;99590.69;;;9.58;100.00
84143;BME280;74260;50.772;7.730;2024-02-04T00:04:31;99594.00;;;9.57;100.00
84143;BME280;74260;50.772;7.730;2024-02-04T00:05:02;99590.69;;;9.58;100.00
84143;BME280;74260;50.772;7.730;2024-02-04T00:05:33;99581.13;;;9.57;100.00
84143;BME280;74260;50.772;7.730;2024-02-04T00:06:05;99586.13;;;9.55;100.00
84143;BME280;74260;50.772;7.730;2024-02-04T00:06:36;99582.19;;;9.59;100.00
84143;BME280;74260;50.772;7.730;2024-02-04T00:07:07;99580.69;;;9.61;100.00
84143;BME280;74260;50.772;7.730;2024-02-04T00:07:38;99590.69;;;9.58;99.79
84143;BME280;74260;50.772;7.730;2024-02-04T00:08:10;99583.13;;;9.68;99.94
84143;BME280;74260;50.772;7.730;2024-02-04T00:08:43;99575.84;;;9.64;99.89
84143;BME280;74260;50.772;7.730;2024-02-04T00:09:13;99569.47;;;9.60;100.00
84143;BME280;74260;50.772;7.730;2024-02-04T00:09:44;99572.97;;;9.61;100.00
84143;BME280;74260;50.772;7.730;2024-02-04T00:10:14;99568.13;;;9.64;99.79
84143;BME280;74260;50.772;7.730;2024-02-04T00:10:47;99563.88;;;9.64;99.63
84143;BME280;74260;50.772;7.730;2024-02-04T00:11:19;99573.25;;;9.64;99.59
84143;BME280;74260;50.772;7.730;2024-02-04T00:11:50;99575.53;;;9.61;99.53
84143;BME280;74260;50.772;7.730;2024-02-04T00:12:22;99579.47;;;9.57;99.84
84143;BME280;74260;50.772;7.730;2024-02-04T00:12:53;99575.25;;;9.58;100.00
84143;BME280;74260;50.772;7.730;2024-02-04T00:13:24;99579.31;;;9.56;100.00
84143;BME280;74260;50.772;7.730;2024-02-04T00:13:54;99573.69;;;9.60;99.74
84143;BME280;74260;50.772;7.730;2024-02-04T00:14:25;99573.25;;;9.55;99.94
84143;BME280;74260;50.772;7.730;2024-02-04T00:14:58;99577.97;;;9.59;100.00
84143;BME280;74260;50.772;7.730;2024-02-04T00:15:29;99575.25;;;9.58;100.00
84143;BME280;74260;50.772;7.730;2024-02-04T00:16:02;99574.31;;;9.57;100.00
84143;BME280;74260;50.772;7.730;2024-02-04T00:16:33;99566.44;;;9.56;100.00
84143;BME280;74260;50.772;7.730;2024-02-04T00:17:04;99570.09;;;9.58;100.00
84143;BME280;74260;50.772;7.730;2024-02-04T00:17:35;99576.75;;;9.56;100.00
84143;BME280;74260;50.772;7.730;2024-02-04T00:18:07;99569.75;;;9.55;100.00
84143;BME280;74260;50.772;7.730;2024-02-04T00:18:38;99571.59;;;9.56;100.00
84143;BME280;74260;50.772;7.730;2024-02-04T00:19:08;99571.25;;;9.53;100.00
84143;BME280;74260;50.772;7.730;2024-02-04T00:19:41;99569.75;;;9.55;100.00
84143;BME280;74260;50.772;7.730;2024-02-04T00:20:11;99579.75;;;9.60;99.50
84143;BME280;74260;50.772;7.730;2024-02-04T00:20:43;99573.84;;;9.61;99.30
84143;BME280;74260;50.772;7.730;2024-02-04T00:21:14;99570.38;;;9.61;99.33
84143;BME280;74260;50.772;7.730;2024-02-04T00:21:45;99575.84;;;9.64;99.40
84143;BME280;74260;50.772;7.730;2024-02-04T00:22:15;99568.88;;;9.63;99.08
84143;BME280;74260;50.772;7.730;2024-02-04T00:22:50;99575.25;;;9.66;99.28
84143;BME280;74260;50.772;7.730;2024-02-04T00:23:21;99563.75;;;9.71;99.33
84143;BME280;74260;50.772;7.730;2024-02-04T00:23:52;99572.81;;;9.68;99.22
84143;BME280;74260;50.772;7.730;2024-02-04T00:24:23;99579.91;;;9.62;99.40
84143;BME280;74260;50.772;7.730;2024-02-04T00:24:54;99578.84;;;9.60;99.39
84143;BME280;74260;50.772;7.730;2024-02-04T00:25:24;99580.53;;;9.59;99.84
84143;BME280;74260;50.772;7.730;2024-02-04T00:25:55;99584.16;;;9.61;99.59
84143;BME280;74260;50.772;7.730;2024-02-04T00:26:26;99588.84;;;9.65;99.23
84143;BME280;74260;50.772;7.730;2024-02-04T00:26:57;99587.94;;;9.65;99.00
84143;BME280;74260;50.772;7.730;2024-02-04T00:27:27;99589.78;;;9.66;99.12
84143;BME280;74260;50.772;7.730;2024-02-04T00:27:58;99583.25;;;9.61;99.24
84143;BME280;74260;50.772;7.730;2024-02-04T00:28:30;99589.63;;;9.64;99.38
84143;BME280;74260;50.772;7.730;2024-02-04T00:29:01;99588.84;;;9.65;99.15
84143;BME280;74260;50.772;7.730;2024-02-04T00:29:32;99590.97;;;9.61;99.22
84143;BME280;74260;50.772;7.730;2024-02-04T00:30:02;99588.56;;;9.62;98.97
84143;BME280;74260;50.772;7.730;2024-02-04T00:30:33;99593.41;;;9.59;99.29
84143;BME280;74260;50.772;7.730;2024-02-04T00:31:05;99595.34;;;9.62;99.27
84143;BME280;74260;50.772;7.730;2024-02-04T00:31:39;99582.34;;;9.69;99.00
84143;BME280;74260;50.772;7.730;2024-02-04T00:32:09;99591.16;;;9.71;98.73
84143;BME280;74260;50.772;7.730;2024-02-04T00:32:39;99590.69;;;9.66;98.92
84143;BME280;74260;50.772;7.730;2024-02-04T00:33:10;99584.31;;;9.63;99.19
84143;BME280;74260;50.772;7.730;2024-02-04T00:33:41;99598.84;;;9.62;99.36
84143;BME280;74260;50.772;7.730;2024-02-04T00:34:13;99591.28;;;9.64;98.94
84143;BME280;74260;50.772;7.730;2024-02-04T00:34:44;99580.97;;;9.64;98.25
84143;BME280;74260;50.772;7.730;2024-02-04T00:35:15;99582.97;;;9.66;98.50
84143;BME280;74260;50.772;7.730;2024-02-04T00:35:46;99582.19;;;9.67;98.37
84143;BME280;74260;50.772;7.730;2024-02-04T00:36:16;99587.34;;;9.67;98.54
84143;BME280;74260;50.772;7.730;2024-02-04T00:36:48;99591.28;;;9.64;98.81
84143;BME280;74260;50.772;7.730;2024-02-04T00:37:19;99590.06;;;9.69;98.73
84143;BME280;74260;50.772;7.730;2024-02-04T00:37:52;99580.84;;;9.71;98.50
84143;BME280;74260;50.772;7.730;2024-02-04T00:38:22;99589.16;;;9.68;98.33
84143;BME280;74260;50.772;7.730;2024-02-04T00:38:53;99585.38;;;9.65;98.64
84143;BME280;74260;50.772;7.730;2024-02-04T00:39:26;99581.56;;;9.61;98.93
84143;BME280;74260;50.772;7.730;2024-02-04T00:39:57;99581.41;;;9.60;99.01
84143;BME280;74260;50.772;7.730;2024-02-04T00:40:29;99587.63;;;9.62;99.26
84143;BME280;74260;50.772;7.730;2024-02-04T00:41:00;99583.84;;;9.67;98.94
84143;BME280;74260;50.772;7.730;2024-02-04T00:41:32;99582.19;;;9.59;98.97
84143;BME280;74260;50.772;7.730;2024-02-04T00:42:04;99582.97;;;9.58;99.23
84143;BME280;74260;50.772;7.730;2024-02-04T00:42:35;99585.19;;;9.55;99.44
84143;BME280;74260;50.772;7.730;2024-02-04T00:43:08;99575.69;;;9.54;99.70
84143;BME280;74260;50.772;7.730;2024-02-04T00:43:40;99572.03;;;9.52;99.68
84143;BME280;74260;50.772;7.730;2024-02-04T00:44:10;99576.09;;;9.50;99.71
84143;BME280;74260;50.772;7.730;2024-02-04T00:44:41;99578.69;;;9.50;99.68
84143;BME280;74260;50.772;7.730;2024-02-04T00:45:12;99574.03;;;9.54;99.47
84143;BME280;74260;50.772;7.730;2024-02-04T00:45:43;99567.81;;;9.52;99.46
84143;BME280;74260;50.772;7.730;2024-02-04T00:46:15;99578.25;;;9.54;99.27
84143;BME280;74260;50.772;7.730;2024-02-04T00:46:46;99579.47;;;9.57;98.90
84143;BME280;74260;50.772;7.730;2024-02-04T00:47:16;99587.03;;;9.56;99.41
84143;BME280;74260;50.772;7.730;2024-02-04T00:47:49;99579.47;;;9.57;99.34
84143;BME280;74260;50.772;7.730;2024-02-04T00:48:20;99583.69;;;9.57;99.00
84143;BME280;74260;50.772;7.730;2024-02-04T00:48:51;99575.38;;;9.59;99.14
84143;BME280;74260;50.772;7.730;2024-02-04T00:49:23;99597.94;;;9.62;98.98
84143;BME280;74260;50.772;7.730;2024-02-04T00:49:53;99576.13;;;9.67;98.43
84143;BME280;74260;50.772;7.730;2024-02-04T00:50:25;99586.13;;;9.64;98.90
84143;BME280;74260;50.772;7.730;2024-02-04T00:50:57;99580.97;;;9.64;98.62
84143;BME280;74260;50.772;7.730;2024-02-04T00:51:30;99572.97;;;9.61;98.89
84143;BME280;74260;50.772;7.730;2024-02-04T00:52:00;99574.31;;;9.57;98.98
84143;BME280;74260;50.772;7.730;2024-02-04T00:52:32;99569.75;;;9.55;99.38
84143;BME280;74260;50.772;7.730;2024-02-04T00:53:02;99581.41;;;9.60;99.07
84143;BME280;74260;50.772;7.730;2024-02-04T00:53:34;99576.75;;;9.64;98.56
84143;BME280;74260;50.772;7.730;2024-02-04T00:54:05;99572.97;;;9.61;98.87
84143;BME280;74260;50.772;7.730;2024-02-04T00:54:35;99572.47;;;9.56;99.23
84143;BME280;74260;50.772;7.730;2024-02-04T00:55:06;99580.97;;;9.55;99.20
84143;BME280;74260;50.772;7.730;2024-02-04T00:55:37;99575.97;;;9.57;99.11
84143;BME280;74260;50.772;7.730;2024-02-04T00:56:07;99577.03;;;9.59;98.80
84143;BME280;74260;50.772;7.730;2024-02-04T00:56:38;99575.81;;;9.55;98.75
84143;BME280;74260;50.772;7.730;2024-02-04T00:57:09;99575.97;;;9.57;98.90
84143;BME280;74260;50.772;7.730;2024-02-04T00:57:42;99578.53;;;9.57;99.12
84143;BME280;74260;50.772;7.730;2024-02-04T00:58:14;99583.41;;;9.54;99.17
84143;BME280;74260;50.772;7.730;2024-02-04T00:58:44;99574.59;;;9.52;99.43
84143;BME280;74260;50.772;7.730;2024-02-04T00:59:15;99578.41;;;9.55;99.31
84143;BME280;74260;50.772;7.730;2024-02-04T00:59:46;99571.25;;;9.53;99.51
84143;BME280;74260;50.772;7.730;2024-02-04T01:00:18;99584.75;;;9.50;99.83
84143;BME280;74260;50.772;7.730;2024-02-04T01:00:48;99581.88;;;9.47;99.81
84143;BME280;74260;50.772;7.730;2024-02-04T01:01:19;99576.59;;;9.46;99.83
84143;BME280;74260;50.772;7.730;2024-02-04T01:01:50;99580.03;;;9.46;99.79
84143;BME280;74260;50.772;7.730;2024-02-04T01:02:21;99587.59;;;9.45;100.00
84143;BME280;74260;50.772;7.730;2024-02-04T01:02:52;99573.66;;;9.43;99.97
84143;BME280;74260;50.772;7.730;2024-02-04T01:03:23;99578.22;;;9.45;100.00
84143;BME280;74260;50.772;7.730;2024-02-04T01:03:53;99577.00;;;9.42;100.00
84143;BME280;74260;50.772;7.730;2024-02-04T01:04:24;99588.53;;;9.45;100.00
84143;BME280;74260;50.772;7.730;2024-02-04T01:04:56;99579.44;;;9.49;100.00
84143;BME280;74260;50.772;7.730;2024-02-04T01:05:27;99582.47;;;9.45;100.00
84143;BME280;74260;50.772;7.730;2024-02-04T01:05:58;99583.06;;;9.42;100.00
84143;BME280;74260;50.772;7.730;2024-02-04T01:06:30;99584.88;;;9.43;100.00
84143;BME280;74260;50.772;7.730;2024-02-04T01:07:00;99590.31;;;9.46;100.00
84143;BME280;74260;50.772;7.730;2024-02-04T01:07:31;99579.31;;;9.47;99.98
84143;BME280;74260;50.772;7.730;2024-02-04T01:08:02;99581.38;;;9.43;100.00
84143;BME280;74260;50.772;7.730;2024-02-04T01:08:34;99580.66;;;9.44;100.00
84143;BME280;74260;50.772;7.730;2024-02-04T01:09:05;99590.59;;;9.41;100.00
84143;BME280;74260;50.772;7.730;2024-02-04T01:09:35;99578.38;;;9.38;100.00
84143;BME280;74260;50.772;7.730;2024-02-04T01:10:06;99580.16;;;9.39;100.00
84143;BME280;74260;50.772;7.730;2024-02-04T01:10:38;99585.47;;;9.41;100.00
84143;BME280;74260;50.772;7.730;2024-02-04T01:11:10;99584.28;;;9.46;100.00
84143;BME280;74260;50.772;7.730;2024-02-04T01:11:41;99579.59;;;9.42;100.00
84143;BME280;74260;50.772;7.730;2024-02-04T01:12:12;99579.44;;;9.49;100.00
84143;BME280;74260;50.772;7.730;2024-02-04T01:12:44;99576.25;;;9.43;100.00
84143;BME280;74260;50.772;7.730;2024-02-04T01:13:15;99576.25;;;9.43;100.00
84143;BME280;74260;50.772;7.730;2024-02-04T01:13:46;99573.38;;;9.40;100.00
84143;BME280;74260;50.772;7.730;2024-02-04T01:14:16;99575.63;;;9.37;100.00
84143;BME280;74260;50.772;7.730;2024-02-04T01:14:48;99585.78;;;9.35;100.00
84143;BME280;74260;50.772;7.730;2024-02-04T01:15:19;99580.16;;;9.39;100.00
84143;BME280;74260;50.772;7.730;2024-02-04T01:15:50;99572.16;;;9.36;100.00
84143;BME280;74260;50.772;7.730;2024-02-04T01:16:21;99586.66;;;9.35;100.00
84143;BME280;74260;50.772;7.730;2024-02-04T01:16:51;99585.44;;;9.32;100.00
84143;BME280;74260;50.772;7.730;2024-02-04T01:17:23;99583.19;;;9.26;100.00
84143;BME280;74260;50.772;7.730;2024-02-04T01:17:54;99578.03;;;9.26;100.00
84143;BME280;74260;50.772;7.730;2024-02-04T01:18:26;99581.50;;;9.27;100.00
84143;BME280;74260;50.772;7.730;2024-02-04T01:18:58;99580.91;;;9.29;100.00
84143;BME280;74260;50.772;7.730;2024-02-04T01:19:28;99592.44;;;9.33;100.00
84143;BME280;74260;50.772;7.730;2024-02-04T01:19:59;99583.63;;;9.31;100.00
84143;BME280;74260;50.772;7.730;2024-02-04T01:20:30;99586.22;;;9.31;100.00
84143;BME280;74260;50.772;7.730;2024-02-04T01:21:01;99585.28;;;9.30;100.00
84143;BME280;74260;50.772;7.730;2024-02-04T01:21:32;99580.78;;;9.37;100.00
84143;BME280;74260;50.772;7.730;2024-02-04T01:22:03;99582.59;;;9.38;100.00
84143;BME280;74260;50.772;7.730;2024-02-04T01:22:33;99579.44;;;9.40;100.00
84143;BME280;74260;50.772;7.730;2024-02-04T01:23:03;99575.78;;;9.38;100.00
84143;BME280;74260;50.772;7.730;2024-02-04T01:23:34;99576.22;;;9.34;100.00
84143;BME280;74260;50.772;7.730;2024-02-04T01:24:05;99576.88;;;9.40;100.00
84143;BME280;74260;50.772;7.730;2024-02-04T01:24:36;99581.09;;;9.40;100.00
84143;BME280;74260;50.772;7.730;2024-02-04T01:25:07;99575.94;;;9.40;100.00
84143;BME280;74260;50.772;7.730;2024-02-04T01:25:37;99569.72;;;9.38;100.00
84143;BME280;74260;50.772;7.730;2024-02-04T01:26:08;99574.88;;;9.38;100.00
84143;BME280;74260;50.772;7.730;2024-02-04T01:26:40;99580.03;;;9.38;100.00
84143;BME280;74260;50.772;7.730;2024-02-04T01:27:10;99578.22;;;9.37;100.00
84143;BME280;74260;50.772;7.730;2024-02-04T01:27:41;99580.78;;;9.37;100.00
84143;BME280;74260;50.772;7.730;2024-02-04T01:28:12;99583.06;;;9.33;100.00
84143;BME280;74260;50.772;7.730;2024-02-04T01:28:42;99582.28;;;9.34;100.00
84143;BME280;74260;50.772;7.730;2024-02-04T01:29:13;99577.00;;;9.33;100.00
84143;BME280;74260;50.772;7.730;2024-02-04T01:29:43;99577.00;;;9.33;100.00
84143;BME280;74260;50.772;7.730;2024-02-04T01:30:14;99576.38;;;9.35;100.00
84143;BME280;74260;50.772;7.730;2024-02-04T01:30:46;99569.13;;;9.31;100.00
84143;BME280;74260;50.772;7.730;2024-02-04T01:31:18;99572.75;;;9.33;100.00
84143;BME280;74260;50.772;7.730;2024-02-04T01:31:48;99567.63;;;9.33;100.00
84143;BME280;74260;50.772;7.730;2024-02-04T01:32:19;99573.50;;;9.32;100.00
84143;BME280;74260;50.772;7.730;2024-02-04T01:32:53;99566.41;;;9.39;100.00
84143;BME280;74260;50.772;7.730;2024-02-04T01:33:25;99565.78;;;9.32;100.00
84143;BME280;74260;50.772;7.730;2024-02-04T01:33:56;99566.41;;;9.30;100.00
84143;BME280;74260;50.772;7.730;2024-02-04T01:34:28;99570.63;;;9.29;100.00
84143;BME280;74260;50.772;7.730;2024-02-04T01:35:00;99569.72;;;9.29;100.00
84143;BME280;74260;50.772;7.730;2024-02-04T01:35:31;99566.97;;;9.27;100.00
84143;BME280;74260;50.772;7.730;2024-02-04T01:36:02;99561.84;;;9.27;100.00
84143;BME280;74260;50.772;7.730;2024-02-04T01:36:33;99570.31;;;9.26;100.00
84143;BME280;74260;50.772;7.730;2024-02-04T01:37:05;99561.84;;;9.27;100.00
84143;BME280;74260;50.772;7.730;2024-02-04T01:37:36;99568.47;;;9.25;100.00
84143;BME280;74260;50.772;7.730;2024-02-04T01:38:07;99569.25;;;9.24;100.00
84143;BME280;74260;50.772;7.730;2024-02-04T01:38:38;99567.75;;;9.26;100.00
84143;BME280;74260;50.772;7.730;2024-02-04T01:39:09;99570.31;;;9.26;100.00
84143;BME280;74260;50.772;7.730;2024-02-04T01:39:40;99568.47;;;9.25;100.00
84143;BME280;74260;50.772;7.730;2024-02-04T01:40:12;99571.81;;;9.24;100.00
84143;BME280;74260;50.772;7.730;2024-02-04T01:40:42;99568.63;;;9.27;100.00
84143;BME280;74260;50.772;7.730;2024-02-04T01:41:13;99563.34;;;9.25;100.00
84143;BME280;74260;50.772;7.730;2024-02-04T01:41:44;99568.47;;;9.25;100.00
84143;BME280;74260;50.772;7.730;2024-02-04T01:42:15;99562.41;;;9.25;100.00
84143;BME280;74260;50.772;7.730;2024-02-04T01:42:46;99562.59;;;9.26;100.00
84143;BME280;74260;50.772;7.730;2024-02-04T01:43:16;99571.06;;;9.25;100.00
84143;BME280;74260;50.772;7.730;2024-02-04T01:43:47;99563.34;;;9.25;100.00
84143;BME280;74260;50.772;7.730;2024-02-04T01:44:18;99560.03;;;9.26;100.00
84143;BME280;74260;50.772;7.730;2024-02-04T01:44:49;99564.09;;;9.24;100.00
84143;BME280;74260;50.772;7.730;2024-02-04T01:45:20;99562.16;;;9.30;100.00
84143;BME280;74260;50.772;7.730;2024-02-04T01:45:50;99564.59;;;9.38;100.00
84143;BME280;74260;50.772;7.730;2024-02-04T01:46:23;99563.22;;;9.32;100.00
84143;BME280;74260;50.772;7.730;2024-02-04T01:46:54;99562.91;;;9.29;100.00
84143;BME280;74260;50.772;7.730;2024-02-04T01:47:26;99561.25;;;9.30;100.00
84143;BME280;74260;50.772;7.730;2024-02-04T01:47:56;99562.78;;;9.37;100.00
84143;BME280;74260;50.772;7.730;2024-02-04T01:48:27;99562.94;;;9.38;100.00
84143;BME280;74260;50.772;7.730;2024-02-04T01:48:59;99558.53;;;9.37;100.00
84143;BME280;74260;50.772;7.730;2024-02-04T01:49:30;99555.66;;;9.34;100.00
84143;BME280;74260;50.772;7.730;2024-02-04T01:50:01;99554.91;;;9.26;100.00
84143;BME280;74260;50.772;7.730;2024-02-04T01:50:33;99557.00;;;9.30;100.00
84143;BME280;74260;50.772;7.730;2024-02-04T01:51:04;99551.13;;;9.31;100.00
84143;BME280;74260;50.772;7.730;2024-02-04T01:51:35;99555.50;;;9.32;100.00
84143;BME280;74260;50.772;7.730;2024-02-04T01:52:07;99555.03;;;9.28;100.00
84143;BME280;74260;50.772;7.730;2024-02-04T01:52:39;99549.28;;;9.30;100.00
84143;BME280;74260;50.772;7.730;2024-02-04T01:53:11;99553.34;;;9.28;100.00
84143;BME280;74260;50.772;7.730;2024-02-04T01:53:44;99556.25;;;9.31;100.00
84143;BME280;74260;50.772;7.730;2024-02-04T01:54:15;99552.19;;;9.33;100.00
84143;BME280;74260;50.772;7.730;2024-02-04T01:54:46;99549.44;;;9.32;100.00
84143;BME280;74260;50.772;7.730;2024-02-04T01:55:18;99541.91;;;9.33;100.00
84143;BME280;74260;50.772;7.730;2024-02-04T01:55:49;99548.56;;;9.31;100.00
84143;BME280;74260;50.772;7.730;2024-02-04T01:56:20;99542.19;;;9.28;100.00
84143;BME280;74260;50.772;7.730;2024-02-04T01:56:54;99542.47;;;9.22;100.00
84143;BME280;74260;50.772;7.730;2024-02-04T01:57:25;99533.69;;;9.20;100.00
84143;BME280;74260;50.772;7.730;2024-02-04T01:57:56;99545.03;;;9.22;100.00
84143;BME280;74260;50.772;7.730;2024-02-04T01:58:26;99543.19;;;9.21;100.00
84143;BME280;74260;50.772;7.730;2024-02-04T01:58:58;99535.81;;;9.24;100.00
84143;BME280;74260;50.772;7.730;2024-02-04T01:59:29;99543.06;;;9.28;100.00
84143;BME280;74260;50.772;7.730;2024-02-04T02:00:04;99544.59;;;9.26;100.00
84143;BME280;74260;50.772;7.730;2024-02-04T02:00:35;99540.19;;;9.25;100.00
84143;BME280;74260;50.772;7.730;2024-02-04T02:01:06;99542.31;;;9.21;100.00
84143;BME280;74260;50.772;7.730;2024-02-04T02:01:37;99541.84;;;9.25;100.00
84143;BME280;74260;50.772;7.730;2024-02-04T02:02:08;99547.00;;;9.25;100.00
84143;BME280;74260;50.772;7.730;2024-02-04T02:02:40;99549.75;;;9.26;100.00
84143;BME280;74260;50.772;7.730;2024-02-04T02:03:11;99537.31;;;9.22;100.00
84143;BME280;74260;50.772;7.730;2024-02-04T02:03:43;99536.56;;;9.23;100.00
84143;BME280;74260;50.772;7.730;2024-02-04T02:04:15;99540.03;;;9.24;100.00
84143;BME280;74260;50.772;7.730;2024-02-04T02:04:47;99544.28;;;9.23;100.00
84143;BME280;74260;50.772;7.730;2024-02-04T02:05:18;99546.84;;;9.23;100.00
84143;BME280;74260;50.772;7.730;2024-02-04T02:05:49;99547.91;;;9.25;100.00
84143;BME280;74260;50.772;7.730;2024-02-04T02:06:21;99547.59;;;9.22;100.00
84143;BME280;74260;50.772;7.730;2024-02-04T02:06:53;99535.47;;;9.21;100.00
84143;BME280;74260;50.772;7.730;2024-02-04T02:07:24;99539.44;;;9.18;100.00
84143;BME280;74260;50.772;7.730;2024-02-04T02:07:57;99542.91;;;9.18;100.00
84143;BME280;74260;50.772;7.730;2024-02-04T02:08:27;99539.09;;;9.15;100.00
84143;BME280;74260;50.772;7.730;2024-02-04T02:09:00;99545.47;;;9.18;100.00
84143;BME280;74260;50.772;7.730;2024-02-04T02:09:33;99545.31;;;9.17;100.00
84143;BME280;74260;50.772;7.730;2024-02-04T02:10:04;99540.94;;;9.16;100.00
84143;BME280;74260;50.772;7.730;2024-02-04T02:10:39;99548.31;;;9.13;100.00
84143;BME280;74260;50.772;7.730;2024-02-04T02:11:19;99543.66;;;9.17;100.00
84143;BME280;74260;50.772;7.730;2024-02-04T02:13:14;99538.41;;;9.24;100.00
84143;BME280;74260;50.772;7.730;2024-02-04T02:13:24;99540.34;;;9.27;100.00
84143;BME280;74260;50.772;7.730;2024-02-04T02:14:00;99540.63;;;9.21;100.00
84143;BME280;74260;50.772;7.730;2024-02-04T02:14:35;99535.81;;;9.24;100.00
84143;BME280;74260;50.772;7.730;2024-02-04T02:15:21;99535.47;;;9.21;100.00
84143;BME280;74260;50.772;7.730;2024-02-04T02:15:56;99536.25;;;9.20;100.00
84143;BME280;74260;50.772;7.730;2024-02-04T02:16:30;99540.19;;;9.25;100.00
84143;BME280;74260;50.772;7.730;2024-02-04T02:17:06;99537.03;;;9.28;100.00
84143;BME280;74260;50.772;7.730;2024-02-04T02:17:47;99534.44;;;9.19;100.00
84143;BME280;74260;50.772;7.730;2024-02-04T02:18:25;99536.53;;;9.15;100.00
84143;BME280;74260;50.772;7.730;2024-02-04T02:20:29;99525.38;;;9.23;100.00
84143;BME280;74260;50.772;7.730;2024-02-04T02:23:07;99527.78;;;9.21;100.00
84143;BME280;74260;50.772;7.730;2024-02-04T02:23:48;99530.97;;;9.19;100.00
84143;BME280;74260;50.772;7.730;2024-02-04T02:24:52;99529.59;;;9.22;100.00
84143;BME280;74260;50.772;7.730;2024-02-04T02:25:24;99524.91;;;9.18;100.00
84143;BME280;74260;50.772;7.730;2024-02-04T02:25:56;99527.94;;;9.14;100.00
84143;BME280;74260;50.772;7.730;2024-02-04T02:26:27;99523.69;;;9.15;100.00
84143;BME280;74260;50.772;7.730;2024-02-04T02:26:57;99526.09;;;9.13;100.00
84143;BME280;74260;50.772;7.730;2024-02-04T02:27:29;99528.53;;;9.20;100.00
84143;BME280;74260;50.772;7.730;2024-02-04T02:27:59;99525.53;;;9.24;100.00
84143;BME280;74260;50.772;7.730;2024-02-04T02:28:31;99531.88;;;9.19;100.00
84143;BME280;74260;50.772;7.730;2024-02-04T02:29:02;99522.31;;;9.18;100.00
84143;BME280;74260;50.772;7.730;2024-02-04T02:29:33;99530.97;;;9.19;100.00
84143;BME280;74260;50.772;7.730;2024-02-04T02:30:04;99535.19;;;9.18;100.00
84143;BME280;74260;50.772;7.730;2024-02-04T02:30:36;99528.97;;;9.16;100.00
84143;BME280;74260;50.772;7.730;2024-02-04T02:31:06;99522.78;;;9.14;100.00
84143;BME280;74260;50.772;7.730;2024-02-04T02:31:38;99527.47;;;9.18;100.00
84143;BME280;74260;50.772;7.730;2024-02-04T02:32:11;99527.97;;;9.23;100.00
84143;BME280;74260;50.772;7.730;2024-02-04T02:32:47;99518.41;;;9.22;100.00
84143;BME280;74260;50.772;7.730;2024-02-04T02:33:19;99520.38;;;9.24;100.00
84143;BME280;74260;50.772;7.730;2024-02-04T02:33:49;99520.53;;;9.26;100.00
84143;BME280;74260;50.772;7.730;2024-02-04T02:34:20;99530.34;;;9.21;100.00
84143;BME280;74260;50.772;7.730;2024-02-04T02:34:51;99513.75;;;9.26;100.00
84143;BME280;74260;50.772;7.730;2024-02-04T02:35:22;99525.84;;;9.27;100.00
84143;BME280;74260;50.772;7.730;2024-02-04T02:35:56;99524.75;;;9.25;100.00
84143;BME280;74260;50.772;7.730;2024-02-04T02:36:30;99518.56;;;9.23;100.00
84143;BME280;74260;50.772;7.730;2024-02-04T02:39:01;99513.13;;;9.38;100.00
84143;BME280;74260;50.772;7.730;2024-02-04T02:39:38;99516.63;;;9.29;100.00
84143;BME280;74260;50.772;7.730;2024-02-04T02:40:18;99514.34;;;9.32;100.00
84143;BME280;74260;50.772;7.730;2024-02-04T02:40:59;99512.53;;;9.31;100.00
84143;BME280;74260;50.772;7.730;2024-02-04T02:41:34;99519.34;;;9.31;100.00
84143;BME280;74260;50.772;7.730;2024-02-04T02:42:05;99523.56;;;9.30;100.00
84143;BME280;74260;50.772;7.730;2024-02-04T02:42:38;99510.13;;;9.33;100.00
84143;BME280;74260;50.772;7.730;2024-02-04T02:43:10;99519.19;;;9.38;100.00
84143;BME280;74260;50.772;7.730;2024-02-04T02:43:41;99515.72;;;9.38;100.00
84143;BME280;74260;50.772;7.730;2024-02-04T02:44:14;99514.50;;;9.34;100.00
84143;BME280;74260;50.772;7.730;2024-02-04T02:44:46;99514.34;;;9.32;100.00
84143;BME280;74260;50.772;7.730;2024-02-04T02:45:19;99514.19;;;9.31;100.00
84143;BME280;74260;50.772;7.730;2024-02-04T02:45:51;99515.56;;;9.36;100.00
84143;BME280;74260;50.772;7.730;2024-02-04T02:46:22;99518.91;;;9.35;100.00
84143;BME280;74260;50.772;7.730;2024-02-04T02:46:58;99512.69;;;9.33;100.00
84143;BME280;74260;50.772;7.730;2024-02-04T02:47:30;99519.47;;;9.32;100.00
84143;BME280;74260;50.772;7.730;2024-02-04T02:48:01;99515.53;;;9.27;100.00
84143;BME280;74260;50.772;7.730;2024-02-04T02:48:32;99513.91;;;9.28;100.00
84143;BME280;74260;50.772;7.730;2024-02-04T02:49:02;99507.25;;;9.30;100.00
84143;BME280;74260;50.772;7.730;2024-02-04T02:49:34;99518.56;;;9.32;100.00
84143;BME280;74260;50.772;7.730;2024-02-04T02:50:06;99507.53;;;9.33;100.00
84143;BME280;74260;50.772;7.730;2024-02-04T02:50:37;99512.22;;;9.37;100.00
84143;BME280;74260;50.772;7.730;2024-02-04T02:51:08;99507.06;;;9.37;100.00
84143;BME280;74260;50.772;7.730;2024-02-04T02:51:39;99506.50;;;9.40;100.00
84143;BME280;74260;50.772;7.730;2024-02-04T02:52:11;99497.69;;;9.38;100.00
84143;BME280;74260;50.772;7.730;2024-02-04T02:52:41;99501.34;;;9.40;100.00
84143;BME280;74260;50.772;7.730;2024-02-04T02:53:12;99501.94;;;9.37;100.00
84143;BME280;74260;50.772;7.730;2024-02-04T02:53:44;99503.91;;;9.40;100.00
84143;BME280;74260;50.772;7.730;2024-02-04T02:54:15;99504.34;;;9.35;100.00
84143;BME280;74260;50.772;7.730;2024-02-04T02:54:45;99508.63;;;9.44;100.00
84143;BME280;74260;50.772;7.730;2024-02-04T02:55:16;99501.78;;;9.44;100.00